Barkersville, South Carolina
Current Conditions -  °F | °C
As of 5:56 PM on Tuesday 25 Nov 2014 (Local Time) from KNBC Reporting Station
Light Rain Light Rain  
Wind Chill: 17°   Ceiling: 600
Heat Index: 17°   Visibility: 2mi
Dew Point: 16°   Wind: 0mph
Humidity: 93%   Direction: NA
Pressure: 30"   Gusts: NA
Location:  32.6221°N, 81.0484°W
Report Text: KNBC 252256Z 00000KT 2SM -RA BR BKN006 OVC055 17/16 A3000 RMK AO2 SFC VIS 3 SLP160 P0004 T01720161
Loading
Personal Weather Stations






























Interactive Weather Map New forecast layout! Learn more

10-Day Weather Forecast

Advertisements
Track Severe Weather on mobile